U S A F Academy, Colorado
Current Conditions -  °F | °C
As of 9:56 AM on Saturday 25 Oct 2014 (Local Time) from KSHM Reporting Station
Clear Clear  
Wind Chill: 69°   Ceiling: Unl
Heat Index: 69°   Visibility: 10mi
Dew Point: 15°   Wind: 13mph
Humidity: 13%   Direction: 20°NNE
Pressure: 30.31"   Gusts: NA
Location:  38.8247°N, 104.562°W
Report Text: KSHM 251556Z AUTO 02011KT 10SM CLR 21/M09 A3031 RMK AO2 SLP199 T02071092
Loading
Personal Weather Stations






























Interactive Weather Map New forecast layout! Learn more

10-Day Weather Forecast

Advertisements
Track Severe Weather on mobile